EZY425 LFKJ-LFLL
Flight info
| Callsign | EZY425 |
|---|---|
| Flight time | 0h 47m |
| Altitude | 34000 |
| Route | LONSU M622 PIGOS DCT BODRU DCT KOTIT/N0347F180 Y42 LASUR Z42 PINED |
| Aircraft | A320/M-SDE3FGHIRWY/LB1 |
Departure
| Time | 2026-04-08 21:03 |
|---|---|
| Airport | Ajaccio Napoléon Bonaparte airport (LFKJ) |
Arrival
| Time | 2026-04-08 21:50 |
|---|---|
| Airport | Lyon Saint-Exupéry Airport (LFLL) |
| Time | Latitude | Longitude | Altitude | Speed | Heading |
|---|---|---|---|---|---|
| 2026-04-08 20:46 | 41.91915 | 8.79536 | 25 ft | 0 kts | 345° |
| 2026-04-08 20:47 | 41.92022 | 8.79607 | 29 ft | 0 kts | 345° |
| 2026-04-08 20:59 | 41.92030 | 8.79608 | 25 ft | 4 kts | 14° |
| 2026-04-08 20:59 | 41.92012 | 8.79632 | 29 ft | 9 kts | 172° |
| 2026-04-08 20:59 | 41.91962 | 8.79662 | 25 ft | 6 kts | 203° |
| 2026-04-08 20:59 | 41.91915 | 8.79624 | 26 ft | 9 kts | 210° |
| 2026-04-08 21:00 | 41.91860 | 8.79583 | 26 ft | 9 kts | 208° |
| 2026-04-08 21:00 | 41.91809 | 8.79552 | 23 ft | 8 kts | 201° |
| 2026-04-08 21:00 | 41.91749 | 8.79520 | 22 ft | 10 kts | 202° |
| 2026-04-08 21:00 | 41.91682 | 8.79482 | 22 ft | 11 kts | 205° |
| 2026-04-08 21:01 | 41.91600 | 8.79429 | 22 ft | 16 kts | 206° |
| 2026-04-08 21:01 | 41.91495 | 8.79355 | 24 ft | 16 kts | 204° |
| 2026-04-08 21:01 | 41.91381 | 8.79344 | 23 ft | 18 kts | 161° |
| 2026-04-08 21:01 | 41.91275 | 8.79415 | 23 ft | 16 kts | 152° |
| 2026-04-08 21:02 | 41.91253 | 8.79537 | 24 ft | 15 kts | 47° |
| 2026-04-08 21:02 | 41.91301 | 8.79566 | 23 ft | 0 kts | 25° |
| 2026-04-08 21:02 | 41.91384 | 8.79620 | 22 ft | 45 kts | 25° |
| 2026-04-08 21:02 | 41.91902 | 8.79943 | 26 ft | 115 kts | 25° |
| 2026-04-08 21:03 | 41.92795 | 8.80495 | 67 ft | 162 kts | 25° |
| 2026-04-08 21:03 | 41.93817 | 8.81111 | 795 ft | 159 kts | 25° |
| 2026-04-08 21:03 | 41.94804 | 8.81738 | 1464 ft | 159 kts | 27° |
| 2026-04-08 21:03 | 41.95896 | 8.82166 | 1859 ft | 176 kts | 354° |
| 2026-04-08 21:04 | 41.97063 | 8.81442 | 2137 ft | 199 kts | 323° |
| 2026-04-08 21:04 | 41.98236 | 8.80245 | 2411 ft | 224 kts | 323° |
| 2026-04-08 21:04 | 41.99562 | 8.78932 | 2796 ft | 248 kts | 324° |
| 2026-04-08 21:04 | 42.00991 | 8.77536 | 3476 ft | 257 kts | 323° |
| 2026-04-08 21:05 | 42.02454 | 8.76116 | 4319 ft | 261 kts | 323° |
| 2026-04-08 21:05 | 42.03944 | 8.74675 | 5201 ft | 264 kts | 323° |
| 2026-04-08 21:05 | 42.05445 | 8.73224 | 6069 ft | 267 kts | 324° |
| 2026-04-08 21:05 | 42.06937 | 8.71780 | 6912 ft | 269 kts | 324° |
| 2026-04-08 21:06 | 42.08466 | 8.70297 | 7710 ft | 273 kts | 324° |
| 2026-04-08 21:06 | 42.10016 | 8.68795 | 8488 ft | 277 kts | 324° |
| 2026-04-08 21:06 | 42.11590 | 8.67273 | 9258 ft | 281 kts | 324° |
| 2026-04-08 21:06 | 42.13191 | 8.65726 | 10065 ft | 285 kts | 325° |
| 2026-04-08 21:07 | 42.14824 | 8.64147 | 10569 ft | 297 kts | 325° |
| 2026-04-08 21:07 | 42.16566 | 8.62459 | 10775 ft | 320 kts | 324° |
| 2026-04-08 21:07 | 42.18441 | 8.60637 | 10935 ft | 343 kts | 324° |
| 2026-04-08 21:07 | 42.20430 | 8.58703 | 11231 ft | 359 kts | 324° |
| 2026-04-08 21:08 | 42.22473 | 8.56711 | 11845 ft | 364 kts | 324° |
| 2026-04-08 21:08 | 42.24534 | 8.54706 | 12524 ft | 367 kts | 324° |
| 2026-04-08 21:08 | 42.26617 | 8.52678 | 13209 ft | 370 kts | 324° |
| 2026-04-08 21:08 | 42.28688 | 8.50658 | 13869 ft | 373 kts | 324° |
| 2026-04-08 21:09 | 42.30806 | 8.48589 | 14464 ft | 377 kts | 324° |
| 2026-04-08 21:09 | 42.32940 | 8.46504 | 15037 ft | 380 kts | 325° |
| 2026-04-08 21:09 | 42.35097 | 8.44397 | 15615 ft | 383 kts | 325° |
| 2026-04-08 21:09 | 42.37268 | 8.42277 | 16174 ft | 386 kts | 325° |
| 2026-04-08 21:10 | 42.39452 | 8.40138 | 16728 ft | 389 kts | 325° |
| 2026-04-08 21:10 | 42.41652 | 8.37982 | 17262 ft | 392 kts | 325° |
| 2026-04-08 21:10 | 42.43838 | 8.35840 | 17791 ft | 395 kts | 325° |
| 2026-04-08 21:10 | 42.46066 | 8.33655 | 18324 ft | 398 kts | 325° |
| 2026-04-08 21:11 | 42.48315 | 8.31448 | 18803 ft | 400 kts | 325° |
| 2026-04-08 21:11 | 42.50582 | 8.29218 | 19241 ft | 403 kts | 325° |
| 2026-04-08 21:11 | 42.52862 | 8.26971 | 19681 ft | 406 kts | 325° |
| 2026-04-08 21:11 | 42.55155 | 8.24709 | 20117 ft | 409 kts | 325° |
| 2026-04-08 21:12 | 42.57468 | 8.22425 | 20553 ft | 412 kts | 325° |
| 2026-04-08 21:12 | 42.59794 | 8.20127 | 20983 ft | 415 kts | 325° |
| 2026-04-08 21:12 | 42.62138 | 8.17811 | 21399 ft | 418 kts | 325° |
| 2026-04-08 21:12 | 42.64502 | 8.15478 | 21813 ft | 420 kts | 325° |
| 2026-04-08 21:13 | 42.66878 | 8.13133 | 22225 ft | 423 kts | 325° |
| 2026-04-08 21:13 | 42.69269 | 8.10770 | 22634 ft | 426 kts | 325° |
| 2026-04-08 21:13 | 42.71675 | 8.08389 | 23022 ft | 428 kts | 325° |
| 2026-04-08 21:13 | 42.74064 | 8.06015 | 23404 ft | 431 kts | 324° |
| 2026-04-08 21:14 | 42.76489 | 8.03600 | 23771 ft | 434 kts | 325° |
| 2026-04-08 21:14 | 42.79031 | 8.01378 | 24088 ft | 435 kts | 332° |
| 2026-04-08 21:14 | 42.81683 | 7.99372 | 24422 ft | 437 kts | 332° |
| 2026-04-08 21:14 | 42.84344 | 7.97359 | 24761 ft | 438 kts | 332° |
| 2026-04-08 21:15 | 42.87019 | 7.95334 | 25093 ft | 440 kts | 332° |
| 2026-04-08 21:15 | 42.89703 | 7.93299 | 25421 ft | 442 kts | 331° |
| 2026-04-08 21:15 | 42.92396 | 7.91251 | 25738 ft | 443 kts | 331° |
| 2026-04-08 21:15 | 42.95097 | 7.89195 | 26045 ft | 445 kts | 331° |
| 2026-04-08 21:16 | 42.97807 | 7.87129 | 26345 ft | 447 kts | 331° |
| 2026-04-08 21:16 | 43.00535 | 7.85048 | 26642 ft | 448 kts | 331° |
| 2026-04-08 21:16 | 43.03260 | 7.82966 | 26929 ft | 450 kts | 331° |
| 2026-04-08 21:16 | 43.05998 | 7.80875 | 27220 ft | 451 kts | 331° |
| 2026-04-08 21:17 | 43.08745 | 7.78775 | 27510 ft | 453 kts | 331° |
| 2026-04-08 21:17 | 43.11475 | 7.76682 | 27777 ft | 454 kts | 330° |
| 2026-04-08 21:17 | 43.14236 | 7.74551 | 28120 ft | 454 kts | 330° |
| 2026-04-08 21:17 | 43.16981 | 7.72420 | 28534 ft | 453 kts | 330° |
| 2026-04-08 21:18 | 43.19719 | 7.70290 | 28937 ft | 452 kts | 330° |
| 2026-04-08 21:18 | 43.25170 | 7.66058 | 29737 ft | 449 kts | 330° |
| 2026-04-08 21:18 | 43.27892 | 7.63941 | 30135 ft | 448 kts | 330° |
| 2026-04-08 21:19 | 43.30604 | 7.61829 | 30476 ft | 447 kts | 330° |
| 2026-04-08 21:19 | 43.33281 | 7.59743 | 30802 ft | 446 kts | 330° |
| 2026-04-08 21:19 | 43.35979 | 7.57637 | 31130 ft | 445 kts | 330° |
| 2026-04-08 21:19 | 43.38676 | 7.55535 | 31449 ft | 445 kts | 330° |
| 2026-04-08 21:20 | 43.41369 | 7.53441 | 31760 ft | 444 kts | 330° |
| 2026-04-08 21:20 | 43.44059 | 7.51350 | 32091 ft | 443 kts | 330° |
| 2026-04-08 21:20 | 43.46747 | 7.49255 | 32421 ft | 442 kts | 330° |
| 2026-04-08 21:20 | 43.49423 | 7.47168 | 32742 ft | 442 kts | 330° |
| 2026-04-08 21:21 | 43.52091 | 7.45085 | 33063 ft | 441 kts | 330° |
| 2026-04-08 21:21 | 43.54727 | 7.43022 | 33378 ft | 440 kts | 329° |
| 2026-04-08 21:21 | 43.57397 | 7.40926 | 33691 ft | 439 kts | 329° |
| 2026-04-08 21:21 | 43.60039 | 7.38799 | 33996 ft | 438 kts | 326° |
| 2026-04-08 21:22 | 43.62471 | 7.36254 | 34148 ft | 439 kts | 317° |
| 2026-04-08 21:22 | 43.64566 | 7.33252 | 34167 ft | 440 kts | 309° |
| 2026-04-08 21:22 | 43.68464 | 7.26704 | 34168 ft | 441 kts | 309° |
| 2026-04-08 21:23 | 43.71711 | 7.21266 | 34166 ft | 441 kts | 309° |
| 2026-04-08 21:23 | 43.75622 | 7.14721 | 34167 ft | 441 kts | 309° |
| 2026-04-08 21:24 | 43.79537 | 7.08163 | 34167 ft | 442 kts | 309° |
| 2026-04-08 21:24 | 43.83446 | 7.01579 | 34167 ft | 442 kts | 309° |
| 2026-04-08 21:25 | 43.87338 | 6.95008 | 34175 ft | 442 kts | 309° |
| 2026-04-08 21:25 | 43.91216 | 6.88454 | 34181 ft | 442 kts | 309° |
| 2026-04-08 21:26 | 43.95113 | 6.81845 | 34185 ft | 442 kts | 309° |
| 2026-04-08 21:26 | 43.99004 | 6.75222 | 34189 ft | 442 kts | 309° |
| 2026-04-08 21:27 | 44.02885 | 6.68610 | 34200 ft | 442 kts | 309° |
| 2026-04-08 21:27 | 44.06775 | 6.61984 | 34204 ft | 442 kts | 309° |
| 2026-04-08 21:28 | 44.10659 | 6.55344 | 34201 ft | 442 kts | 308° |
| 2026-04-08 21:28 | 44.14511 | 6.48721 | 34206 ft | 442 kts | 308° |
| 2026-04-08 21:29 | 44.18389 | 6.42045 | 34210 ft | 442 kts | 308° |
| 2026-04-08 21:29 | 44.22278 | 6.35358 | 34211 ft | 442 kts | 308° |
| 2026-04-08 21:30 | 44.26130 | 6.28711 | 34211 ft | 443 kts | 308° |
| 2026-04-08 21:30 | 44.29996 | 6.22016 | 34210 ft | 442 kts | 308° |
| 2026-04-08 21:31 | 44.33863 | 6.15306 | 34210 ft | 443 kts | 308° |
| 2026-04-08 21:31 | 44.37725 | 6.08581 | 34211 ft | 443 kts | 308° |
| 2026-04-08 21:32 | 44.41559 | 6.01899 | 34213 ft | 443 kts | 308° |
| 2026-04-08 21:32 | 44.45415 | 5.95161 | 34213 ft | 443 kts | 308° |
| 2026-04-08 21:33 | 44.49276 | 5.88402 | 34216 ft | 443 kts | 308° |
| 2026-04-08 21:33 | 44.51196 | 5.85031 | 33945 ft | 441 kts | 308° |
| 2026-04-08 21:33 | 44.53084 | 5.81712 | 32956 ft | 439 kts | 308° |
| 2026-04-08 21:34 | 44.55002 | 5.78337 | 31722 ft | 443 kts | 308° |
| 2026-04-08 21:34 | 44.56933 | 5.74938 | 30634 ft | 449 kts | 308° |
| 2026-04-08 21:34 | 44.58891 | 5.71486 | 29697 ft | 451 kts | 308° |
| 2026-04-08 21:34 | 44.60846 | 5.68033 | 28668 ft | 453 kts | 308° |
| 2026-04-08 21:35 | 44.62868 | 5.64630 | 27610 ft | 455 kts | 314° |
| 2026-04-08 21:35 | 44.65233 | 5.61657 | 26565 ft | 458 kts | 323° |
| 2026-04-08 21:35 | 44.67930 | 5.59246 | 25510 ft | 460 kts | 333° |
| 2026-04-08 21:35 | 44.70877 | 5.57521 | 24708 ft | 457 kts | 342° |
| 2026-04-08 21:36 | 44.73921 | 5.56496 | 23989 ft | 452 kts | 351° |
| 2026-04-08 21:36 | 44.77036 | 5.55952 | 23171 ft | 448 kts | 353° |
| 2026-04-08 21:36 | 44.80118 | 5.55433 | 22403 ft | 444 kts | 353° |
| 2026-04-08 21:36 | 44.83168 | 5.54918 | 21692 ft | 439 kts | 353° |
| 2026-04-08 21:37 | 44.86200 | 5.54409 | 20996 ft | 435 kts | 353° |
| 2026-04-08 21:37 | 44.89191 | 5.53910 | 20335 ft | 430 kts | 353° |
| 2026-04-08 21:37 | 44.92154 | 5.53421 | 19692 ft | 426 kts | 354° |
| 2026-04-08 21:37 | 44.95060 | 5.52940 | 19074 ft | 423 kts | 354° |
| 2026-04-08 21:38 | 44.97971 | 5.52454 | 18460 ft | 419 kts | 354° |
| 2026-04-08 21:38 | 45.00859 | 5.52102 | 17770 ft | 415 kts | 360° |
| 2026-04-08 21:38 | 45.03739 | 5.52079 | 17089 ft | 411 kts | 0° |
| 2026-04-08 21:38 | 45.06591 | 5.52062 | 16425 ft | 408 kts | 0° |
| 2026-04-08 21:39 | 45.09426 | 5.52044 | 15785 ft | 405 kts | 0° |
| 2026-04-08 21:39 | 45.12201 | 5.52023 | 15175 ft | 402 kts | 0° |
| 2026-04-08 21:39 | 45.14991 | 5.52000 | 14606 ft | 399 kts | 0° |
| 2026-04-08 21:39 | 45.17699 | 5.51970 | 14454 ft | 375 kts | 0° |
| 2026-04-08 21:40 | 45.20218 | 5.51934 | 14170 ft | 352 kts | 0° |
| 2026-04-08 21:40 | 45.22650 | 5.51901 | 13447 ft | 344 kts | 0° |
| 2026-04-08 21:40 | 45.24988 | 5.51877 | 12809 ft | 335 kts | 0° |
| 2026-04-08 21:40 | 45.27295 | 5.51827 | 12180 ft | 327 kts | 356° |
| 2026-04-08 21:41 | 45.29517 | 5.51279 | 11555 ft | 320 kts | 345° |
| 2026-04-08 21:41 | 45.31658 | 5.50459 | 10946 ft | 315 kts | 345° |
| 2026-04-08 21:41 | 45.33742 | 5.49637 | 10450 ft | 306 kts | 340° |
| 2026-04-08 21:41 | 45.35602 | 5.48304 | 10021 ft | 296 kts | 324° |
| 2026-04-08 21:42 | 45.37082 | 5.46370 | 9557 ft | 290 kts | 308° |
| 2026-04-08 21:42 | 45.38215 | 5.44007 | 9091 ft | 288 kts | 303° |
| 2026-04-08 21:42 | 45.39313 | 5.41600 | 8636 ft | 288 kts | 303° |
| 2026-04-08 21:42 | 45.40400 | 5.39229 | 8183 ft | 284 kts | 303° |
| 2026-04-08 21:43 | 45.41481 | 5.36879 | 7725 ft | 282 kts | 303° |
| 2026-04-08 21:43 | 45.42538 | 5.34577 | 7305 ft | 280 kts | 303° |
| 2026-04-08 21:43 | 45.43601 | 5.32256 | 6873 ft | 278 kts | 303° |
| 2026-04-08 21:43 | 45.44656 | 5.29947 | 6432 ft | 276 kts | 303° |
| 2026-04-08 21:44 | 45.45616 | 5.27844 | 6016 ft | 275 kts | 303° |
| 2026-04-08 21:44 | 45.46661 | 5.25553 | 5565 ft | 275 kts | 303° |
| 2026-04-08 21:44 | 45.47691 | 5.23290 | 5129 ft | 275 kts | 303° |
| 2026-04-08 21:44 | 45.48724 | 5.21018 | 4663 ft | 267 kts | 303° |
| 2026-04-08 21:45 | 45.49712 | 5.18843 | 4332 ft | 253 kts | 303° |
| 2026-04-08 21:45 | 45.50637 | 5.16803 | 4209 ft | 239 kts | 303° |
| 2026-04-08 21:45 | 45.51523 | 5.14852 | 4081 ft | 230 kts | 303° |
| 2026-04-08 21:45 | 45.52424 | 5.13020 | 3949 ft | 221 kts | 315° |
| 2026-04-08 21:46 | 45.53656 | 5.11814 | 3823 ft | 211 kts | 339° |
| 2026-04-08 21:46 | 45.55061 | 5.11398 | 3713 ft | 202 kts | 355° |
| 2026-04-08 21:46 | 45.56396 | 5.11246 | 3632 ft | 189 kts | 355° |
| 2026-04-08 21:46 | 45.57670 | 5.11102 | 3441 ft | 178 kts | 355° |
| 2026-04-08 21:47 | 45.58850 | 5.10962 | 3250 ft | 161 kts | 355° |
| 2026-04-08 21:47 | 45.59927 | 5.10833 | 3037 ft | 151 kts | 355° |
| 2026-04-08 21:47 | 45.60960 | 5.10708 | 2837 ft | 146 kts | 355° |
| 2026-04-08 21:47 | 45.61963 | 5.10587 | 2651 ft | 144 kts | 355° |
| 2026-04-08 21:48 | 45.62962 | 5.10466 | 2457 ft | 144 kts | 355° |
| 2026-04-08 21:48 | 45.63945 | 5.10347 | 2272 ft | 143 kts | 355° |
| 2026-04-08 21:48 | 45.64939 | 5.10226 | 2086 ft | 143 kts | 355° |
| 2026-04-08 21:48 | 45.65929 | 5.10106 | 1892 ft | 143 kts | 355° |
| 2026-04-08 21:49 | 45.66924 | 5.09985 | 1693 ft | 143 kts | 355° |
| 2026-04-08 21:49 | 45.67921 | 5.09864 | 1496 ft | 144 kts | 355° |
| 2026-04-08 21:49 | 45.68910 | 5.09741 | 1304 ft | 144 kts | 355° |
| 2026-04-08 21:49 | 45.69912 | 5.09615 | 1102 ft | 145 kts | 355° |
| 2026-04-08 21:50 | 45.70919 | 5.09496 | 897 ft | 144 kts | 354° |
| 2026-04-08 21:50 | 45.71881 | 5.09382 | 808 ft | 115 kts | 355° |
| 2026-04-08 21:50 | 45.72375 | 5.09322 | 806 ft | 27 kts | 346° |
| 2026-04-08 21:50 | 45.72540 | 5.09213 | 804 ft | 27 kts | 335° |
| 2026-04-08 21:51 | 45.72693 | 5.09070 | 802 ft | 25 kts | 328° |
| 2026-04-08 21:51 | 45.72849 | 5.09041 | 801 ft | 23 kts | 354° |
| 2026-04-08 21:51 | 45.72893 | 5.09035 | 801 ft | 0 kts | 354° |
| 2026-04-08 21:54 | 45.72935 | 5.09020 | 801 ft | 11 kts | 335° |
| 2026-04-08 21:54 | 45.72961 | 5.08872 | 799 ft | 22 kts | 265° |
| 2026-04-08 21:54 | 45.72947 | 5.08658 | 801 ft | 18 kts | 265° |
| 2026-04-08 21:54 | 45.72937 | 5.08483 | 802 ft | 17 kts | 265° |
| 2026-04-08 21:55 | 45.72872 | 5.08355 | 802 ft | 18 kts | 198° |
| 2026-04-08 21:55 | 45.72745 | 5.08364 | 802 ft | 18 kts | 175° |
| 2026-04-08 21:55 | 45.72617 | 5.08379 | 802 ft | 19 kts | 175° |
| 2026-04-08 21:55 | 45.72492 | 5.08394 | 802 ft | 18 kts | 175° |
| 2026-04-08 21:56 | 45.72372 | 5.08408 | 802 ft | 16 kts | 175° |
| 2026-04-08 21:56 | 45.72268 | 5.08385 | 802 ft | 16 kts | 229° |
| 2026-04-08 21:56 | 45.72182 | 5.08317 | 802 ft | 16 kts | 181° |
| 2026-04-08 21:56 | 45.72074 | 5.08275 | 802 ft | 17 kts | 199° |
| 2026-04-08 21:57 | 45.71943 | 5.08222 | 802 ft | 21 kts | 194° |
| 2026-04-08 21:57 | 45.71831 | 5.08166 | 802 ft | 10 kts | 239° |
| 2026-04-08 21:57 | 45.71836 | 5.08100 | 802 ft | 5 kts | 227° |
| 2026-04-08 21:57 | 45.71828 | 5.08063 | 802 ft | 5 kts | 279° |
| 2026-04-08 21:58 | 45.71836 | 5.08044 | 802 ft | 0 kts | 304° |